createdAt,value
2019-02-24T00:01:54.594Z,68.94
2019-02-24T00:04:44.692Z,68.97
2019-02-24T00:08:11.075Z,68.99
2019-02-24T00:10:29.861Z,69.01
2019-02-24T00:13:02.621Z,69.01
2019-02-24T00:15:44.598Z,69.06
2019-02-24T00:18:56.149Z,69.08
2019-02-24T00:21:31.247Z,69.32
2019-02-24T00:24:13.153Z,69.32
2019-02-24T00:27:11.861Z,69.17
2019-02-24T00:29:56.135Z,69.21
2019-02-24T00:32:31.525Z,69.22
2019-02-24T00:35:06.397Z,69.24
2019-02-24T00:37:42.794Z,69.26
2019-02-24T00:40:18.857Z,69.29
2019-02-24T00:43:02.096Z,69.30
2019-02-24T00:45:38.296Z,69.34
2019-02-24T00:48:26.978Z,69.36
2019-02-24T00:50:58.715Z,69.39
2019-02-24T00:53:42.269Z,69.41
2019-02-24T00:56:11.167Z,69.42
2019-02-24T00:58:57.214Z,69.46
2019-02-24T01:01:54.106Z,69.48
2019-02-24T01:04:31.417Z,69.50
2019-02-24T01:07:06.438Z,69.51
2019-02-24T01:09:41.681Z,69.55
2019-02-24T01:12:16.714Z,69.57
2019-02-24T01:14:49.634Z,69.63
2019-02-24T01:17:30.447Z,69.62
2019-02-24T01:20:14.429Z,69.65
2019-02-24T01:22:53.617Z,69.65
2019-02-24T01:25:43.938Z,69.70
2019-02-24T01:28:25.665Z,69.71
2019-02-24T01:31:17.061Z,69.77
2019-02-24T01:33:52.655Z,69.79
2019-02-24T01:36:25.566Z,69.81
2019-02-24T01:38:57.964Z,69.84
2019-02-24T01:41:32.606Z,69.86
2019-02-24T01:44:08.063Z,69.86
2019-02-24T01:46:45.034Z,69.88
2019-02-24T01:49:20.436Z,69.89
2019-02-24T01:52:15.684Z,69.89
2019-02-24T01:54:47.992Z,69.95
2019-02-24T01:57:25.533Z,69.96
2019-02-24T01:59:55.548Z,69.97
2019-02-24T02:02:27.675Z,69.98
2019-02-24T02:04:59.677Z,70.03
2019-02-24T02:07:39.107Z,70.05
2019-02-24T02:10:21.927Z,70.06
2019-02-24T02:13:01.447Z,70.10
2019-02-24T02:15:37.212Z,70.09
2019-02-24T02:18:08.165Z,70.13
2019-02-24T02:20:46.366Z,70.15
2019-02-24T02:23:21.482Z,70.19
2019-02-24T02:25:53.417Z,70.21
2019-02-24T02:28:30.416Z,70.24
2019-02-24T02:31:08.646Z,70.26
2019-02-24T02:33:43.326Z,70.28
2019-02-24T02:36:18.233Z,70.29
2019-02-24T02:38:55.175Z,70.31
2019-02-24T02:41:27.842Z,70.34
2019-02-24T02:44:02.301Z,70.36
2019-02-24T02:46:43.652Z,70.40
2019-02-24T02:49:15.442Z,70.43
2019-02-24T02:51:55.574Z,70.44
2019-02-24T02:54:41.265Z,70.47
2019-02-24T02:57:18.263Z,70.48
2019-02-24T02:59:53.995Z,70.51
2019-02-24T03:02:30.703Z,70.53
2019-02-24T03:05:03.429Z,70.55
2019-02-24T03:07:51.462Z,70.57
2019-02-24T03:10:28.056Z,70.59
2019-02-24T03:12:56.187Z,70.56
2019-02-24T03:15:26.714Z,70.65
2019-02-24T03:17:57.281Z,70.69
2019-02-24T03:20:28.237Z,70.68
2019-02-24T03:23:10.477Z,70.72
2019-02-24T03:25:45.664Z,70.74
2019-02-24T03:28:22.633Z,70.77
2019-02-24T03:31:01.863Z,70.79
2019-02-24T03:33:32.676Z,70.80
2019-02-24T03:36:21.587Z,70.82
2019-02-24T03:38:55.025Z,70.84
2019-02-24T03:41:28.471Z,70.87
2019-02-24T03:44:15.486Z,70.88
2019-02-24T03:46:48.285Z,70.91
2019-02-24T03:49:21.409Z,70.94
2019-02-24T03:52:08.075Z,70.97
2019-02-24T03:54:41.729Z,71.00
2019-02-24T03:57:12.303Z,71.03
2019-02-24T03:59:48.201Z,71.05
2019-02-24T04:02:18.815Z,71.07
2019-02-24T04:04:49.334Z,71.09
2019-02-24T04:07:39.125Z,71.11
2019-02-24T04:10:17.269Z,71.13
2019-02-24T04:13:55.076Z,71.16
2019-02-24T04:15:26.659Z,71.20
2019-02-24T04:17:57.299Z,71.23
2019-02-24T04:20:27.939Z,71.25
2019-02-24T04:23:08.580Z,71.27
2019-02-24T04:25:39.105Z,71.28
2019-02-24T04:28:09.955Z,71.30
2019-02-24T04:30:42.597Z,71.32
2019-02-24T04:33:18.091Z,71.35
2019-02-24T04:35:48.925Z,71.36
2019-02-24T04:38:20.000Z,71.40
2019-02-24T04:40:56.480Z,71.42
2019-02-24T04:43:31.349Z,71.44
2019-02-24T04:46:06.080Z,71.47
2019-02-24T04:48:36.597Z,71.49
2019-02-24T04:51:07.069Z,71.51
2019-02-24T04:53:37.749Z,71.54
2019-02-24T04:56:10.314Z,71.56
2019-02-24T04:58:40.940Z,71.56
2019-02-24T05:01:29.631Z,71.59
2019-02-24T05:04:01.952Z,71.62
2019-02-24T05:06:38.556Z,71.62
2019-02-24T05:09:09.013Z,71.66
2019-02-24T05:11:39.646Z,71.66
2019-02-24T05:14:10.272Z,71.70
2019-02-24T05:16:49.711Z,71.72
2019-02-24T05:19:18.700Z,71.75
2019-02-24T05:21:52.349Z,71.76
2019-02-24T05:24:23.064Z,71.79
2019-02-24T05:26:58.039Z,71.82
2019-02-24T05:29:30.811Z,71.82
2019-02-24T05:32:05.239Z,71.85
2019-02-24T05:34:37.465Z,71.89
2019-02-24T05:37:12.758Z,71.89
2019-02-24T05:40:11.179Z,71.91
2019-02-24T05:42:51.046Z,71.92
2019-02-24T05:45:22.912Z,71.95
2019-02-24T05:48:04.690Z,71.96
2019-02-24T05:50:36.666Z,71.99
2019-02-24T05:53:08.623Z,72.00
2019-02-24T05:55:57.552Z,72.04
2019-02-24T05:58:26.490Z,72.05
2019-02-24T06:00:58.843Z,72.08
2019-02-24T06:03:34.925Z,72.10
2019-02-24T06:06:13.121Z,72.11
2019-02-24T06:08:43.301Z,72.14
2019-02-24T06:11:15.753Z,72.17
2019-02-24T06:14:05.256Z,72.20
2019-02-24T06:16:45.291Z,72.22
2019-02-24T06:19:21.605Z,72.23
2019-02-24T06:21:56.736Z,72.27
2019-02-24T06:24:30.738Z,72.28
2019-02-24T06:27:02.831Z,72.31
2019-02-24T06:29:40.322Z,72.34
2019-02-24T06:32:10.409Z,72.34
2019-02-24T06:34:41.177Z,72.41
2019-02-24T06:37:16.374Z,72.42
2019-02-24T06:39:51.983Z,72.42
2019-02-24T06:42:37.871Z,72.44
2019-02-24T06:45:27.543Z,72.47
2019-02-24T06:47:58.393Z,72.50
2019-02-24T06:50:58.539Z,72.51
2019-02-24T06:53:31.492Z,72.53
2019-02-24T06:56:02.028Z,72.57
2019-02-24T06:58:38.395Z,72.59
2019-02-24T07:01:12.610Z,72.62
2019-02-24T07:03:47.605Z,72.65
2019-02-24T07:06:21.375Z,72.67
2019-02-24T07:08:53.620Z,72.71
2019-02-24T07:11:43.100Z,72.74
2019-02-24T07:14:47.196Z,72.75
2019-02-24T07:18:02.393Z,72.78
2019-02-24T07:20:52.190Z,72.80
2019-02-24T07:23:44.012Z,72.86
2019-02-24T07:27:31.313Z,72.89
2019-02-24T07:30:42.118Z,72.95
2019-02-24T07:33:34.094Z,72.95
2019-02-24T07:36:29.499Z,73.02
2019-02-24T07:39:13.961Z,73.04
2019-02-24T07:42:19.910Z,73.06
2019-02-24T07:45:41.479Z,73.10
2019-02-24T07:48:45.093Z,73.11
2019-02-24T07:51:30.164Z,73.17
2019-02-24T07:54:23.401Z,73.19
2019-02-24T07:57:13.996Z,73.21
2019-02-24T08:00:15.630Z,73.25
2019-02-24T08:03:01.144Z,73.28
2019-02-24T08:05:44.354Z,73.30
2019-02-24T08:08:21.571Z,73.35
2019-02-24T08:11:22.493Z,73.39
2019-02-24T08:14:16.644Z,73.41
2019-02-24T08:16:58.398Z,73.46
2019-02-24T08:19:46.196Z,73.48
2019-02-24T08:22:21.473Z,73.51
2019-02-24T08:25:17.551Z,73.56
2019-02-24T08:27:46.482Z,73.60
2019-02-24T08:30:41.666Z,73.59
2019-02-24T08:33:13.079Z,73.63
2019-02-24T08:35:44.653Z,73.67
2019-02-24T08:38:20.326Z,73.68
2019-02-24T08:41:03.634Z,73.71
2019-02-24T08:43:49.638Z,73.74
2019-02-24T08:46:27.487Z,73.77
2019-02-24T08:49:08.257Z,73.80
2019-02-24T08:51:47.790Z,73.82
2019-02-24T08:54:36.005Z,73.83
2019-02-24T08:57:15.756Z,73.86
2019-02-24T08:59:57.772Z,73.88
2019-02-24T09:02:31.118Z,73.90
2019-02-24T09:06:02.193Z,73.92
2019-02-24T09:08:16.368Z,73.91
2019-02-24T09:10:49.155Z,73.92
2019-02-24T09:13:25.988Z,73.94
2019-02-24T09:16:11.240Z,73.99
2019-02-24T09:18:40.178Z,74.01
2019-02-24T09:21:12.881Z,74.03
2019-02-24T09:24:00.320Z,74.04
2019-02-24T09:27:10.324Z,74.09
2019-02-24T09:29:49.223Z,74.11
2019-02-24T09:35:42.632Z,74.16
2019-02-24T09:36:10.651Z,74.14
2019-02-24T09:38:54.668Z,74.18
2019-02-24T09:41:37.531Z,74.21
2019-02-24T09:44:24.465Z,74.24
2019-02-24T09:47:03.569Z,74.26
2019-02-24T09:53:01.819Z,74.31
2019-02-24T09:55:52.695Z,74.32
2019-02-24T10:01:10.551Z,74.36
2019-02-24T10:10:12.649Z,74.48
2019-02-24T10:12:32.021Z,74.50
2019-02-24T10:15:07.916Z,74.51
2019-02-24T10:17:58.222Z,74.54
2019-02-24T10:21:09.651Z,74.57
2019-02-24T10:23:54.622Z,74.58
2019-02-24T10:27:18.161Z,74.65
2019-02-24T10:29:35.761Z,74.66
2019-02-24T10:32:15.582Z,74.72
2019-02-24T10:36:02.900Z,74.73
2019-02-24T10:38:29.642Z,74.75
2019-02-24T10:41:39.431Z,74.93
2019-02-24T10:44:40.576Z,75.02
2019-02-24T10:47:29.125Z,75.02
2019-02-24T10:50:05.132Z,75.12
2019-02-24T10:53:10.106Z,75.20
2019-02-24T10:56:28.234Z,75.21
2019-02-24T11:02:33.327Z,75.18
2019-02-24T11:05:22.192Z,75.19
2019-02-24T11:08:06.031Z,75.31
2019-02-24T11:10:48.759Z,75.38
2019-02-24T11:13:45.689Z,75.45
2019-02-24T11:16:32.151Z,75.42
2019-02-24T11:19:45.649Z,75.47
2019-02-24T11:25:45.811Z,75.57
2019-02-24T11:29:49.461Z,75.79
2019-02-24T11:32:12.216Z,75.80
2019-02-24T11:35:10.091Z,75.81
2019-02-24T11:37:56.794Z,75.85
2019-02-24T11:40:19.503Z,75.84
2019-02-24T11:43:26.145Z,75.78
2019-02-24T11:45:57.763Z,75.85
2019-02-24T11:48:31.745Z,75.97
2019-02-24T11:51:26.365Z,76.01
2019-02-24T11:53:58.038Z,76.04
2019-02-24T11:56:33.104Z,76.01
2019-02-24T11:59:03.553Z,76.02
2019-02-24T12:01:47.412Z,76.05
2019-02-24T12:04:11.381Z,76.04
2019-02-24T12:06:41.782Z,76.11
2019-02-24T12:09:13.176Z,76.23
2019-02-24T12:11:44.082Z,76.21
2019-02-24T12:14:14.567Z,76.21
2019-02-24T12:16:47.123Z,76.16
2019-02-24T12:19:17.654Z,76.18
2019-02-24T12:21:57.431Z,76.20
2019-02-24T12:24:29.593Z,76.19
2019-02-24T12:27:09.831Z,76.19
2019-02-24T12:29:52.818Z,76.19
2019-02-24T12:32:23.414Z,76.15
2019-02-24T12:34:56.549Z,76.10
2019-02-24T12:37:47.906Z,76.14
2019-02-24T12:40:18.348Z,76.12
2019-02-24T12:42:49.262Z,76.07
2019-02-24T12:45:21.519Z,75.98
2019-02-24T12:47:52.079Z,75.93
2019-02-24T12:50:24.118Z,75.87
2019-02-24T12:52:55.880Z,75.87
2019-02-24T12:55:29.370Z,75.81
2019-02-24T12:58:23.101Z,75.84
2019-02-24T13:01:00.651Z,75.78
2019-02-24T13:03:59.151Z,75.85
2019-02-24T13:06:45.665Z,75.84
2019-02-24T13:09:47.394Z,75.77
2019-02-24T13:12:24.971Z,75.86
2019-02-24T13:15:37.894Z,75.78
2019-02-24T13:18:40.054Z,75.73
2019-02-24T13:21:14.346Z,75.71
2019-02-24T13:24:07.307Z,75.62
2019-02-24T13:26:58.308Z,75.54
2019-02-24T13:30:02.300Z,75.47
2019-02-24T13:32:55.673Z,75.42
2019-02-24T13:35:28.647Z,75.39
2019-02-24T13:38:08.182Z,75.43
2019-02-24T13:41:09.377Z,75.57
2019-02-24T13:43:44.333Z,75.54
2019-02-24T13:46:40.200Z,75.38
2019-02-24T13:49:13.905Z,75.39
2019-02-24T13:51:53.672Z,75.26
2019-02-24T13:54:35.065Z,75.13
2019-02-24T13:59:56.060Z,74.87
2019-02-24T14:02:51.220Z,74.86
2019-02-24T14:05:35.991Z,74.89
2019-02-24T14:08:22.950Z,74.94
2019-02-24T14:11:15.994Z,74.93
2019-02-24T14:14:00.197Z,74.95
2019-02-24T14:16:55.356Z,74.92
2019-02-24T14:19:46.352Z,74.85
2019-02-24T14:22:30.273Z,74.73
2019-02-24T14:25:07.138Z,74.65
2019-02-24T14:27:45.288Z,74.52
2019-02-24T14:30:34.885Z,74.48
2019-02-24T14:33:12.461Z,74.49
2019-02-24T14:35:55.172Z,74.45
2019-02-24T14:38:45.152Z,74.41
2019-02-24T14:41:27.306Z,74.39
2019-02-24T14:44:02.416Z,74.30
2019-02-24T14:46:36.114Z,74.30
2019-02-24T14:49:23.642Z,74.19
2019-02-24T14:52:13.191Z,74.10
2019-02-24T14:54:47.310Z,74.02
2019-02-24T14:57:21.080Z,73.89
2019-02-24T15:00:25.451Z,73.77
2019-02-24T15:03:03.521Z,73.69
2019-02-24T15:05:46.979Z,73.58
2019-02-24T15:08:22.483Z,73.51
2019-02-24T15:10:57.069Z,73.41
2019-02-24T15:14:02.712Z,73.32
2019-02-24T15:16:36.170Z,73.26
2019-02-24T15:19:26.085Z,73.19
2019-02-24T15:22:19.492Z,73.14
2019-02-24T15:25:03.913Z,73.07
2019-02-24T15:27:42.082Z,73.00
2019-02-24T15:31:33.063Z,72.94
2019-02-24T15:33:28.822Z,72.85
2019-02-24T15:36:34.542Z,72.80
2019-02-24T15:39:23.741Z,72.72
2019-02-24T15:41:59.907Z,72.67
2019-02-24T15:44:41.920Z,72.60
2019-02-24T15:47:17.189Z,72.56
2019-02-24T15:49:52.899Z,72.53
2019-02-24T15:52:26.554Z,72.50
2019-02-24T15:55:06.089Z,72.44
2019-02-24T15:57:45.149Z,72.40
2019-02-24T16:00:42.460Z,72.38
2019-02-24T16:03:30.148Z,72.36
2019-02-24T16:06:05.702Z,72.32
2019-02-24T16:09:28.854Z,72.29
2019-02-24T16:14:56.720Z,72.19
2019-02-24T16:17:40.555Z,72.16
2019-02-24T16:20:26.011Z,72.15
2019-02-24T16:23:19.464Z,72.11
2019-02-24T16:25:52.771Z,72.08
2019-02-24T16:28:27.753Z,72.04
2019-02-24T16:33:59.069Z,72.00
2019-02-24T16:36:34.520Z,71.97
2019-02-24T16:43:41.064Z,71.90
2019-02-24T16:46:52.163Z,71.89
2019-02-24T16:49:23.991Z,71.83
2019-02-24T16:51:59.263Z,71.80
2019-02-24T16:55:50.451Z,71.79
2019-02-24T16:58:50.458Z,71.75
2019-02-24T17:01:42.985Z,71.74
2019-02-24T17:04:20.946Z,71.70
2019-02-24T17:26:20.931Z,71.59
2019-02-24T17:29:02.248Z,71.56
2019-02-24T17:31:58.418Z,71.54
2019-02-24T17:34:39.575Z,71.53
2019-02-24T17:37:42.347Z,71.51
2019-02-24T17:41:03.500Z,71.51
2019-02-24T17:47:44.696Z,71.44
2019-02-24T17:50:19.535Z,71.43
2019-02-24T17:58:05.890Z,71.41
2019-02-24T17:59:59.729Z,71.40
2019-02-24T18:06:00.463Z,71.35
2019-02-24T18:09:52.919Z,71.35
2019-02-24T18:33:51.061Z,71.28
2019-02-24T18:36:12.076Z,71.30
2019-02-24T18:46:51.811Z,71.28
2019-02-24T19:03:33.918Z,71.20
2019-02-24T19:07:01.367Z,71.15
2019-02-24T19:09:49.338Z,71.18
2019-02-24T19:21:53.845Z,71.14
2019-02-24T19:24:28.241Z,71.15
2019-02-24T20:01:35.982Z,71.17
2019-02-24T20:04:17.371Z,71.15
2019-02-24T20:07:01.217Z,71.14
2019-02-24T20:10:50.745Z,71.13
2019-02-24T20:17:12.680Z,71.12
2019-02-24T20:20:09.185Z,71.15
2019-02-24T20:26:38.005Z,71.17
2019-02-24T20:29:46.851Z,71.15
2019-02-24T20:32:40.414Z,71.19
2019-02-24T20:35:58.188Z,71.18
2019-02-24T20:44:09.762Z,71.24
2019-02-24T21:28:21.273Z,71.47
2019-02-24T21:30:50.616Z,71.49
2019-02-24T21:33:29.547Z,71.50
2019-02-24T21:39:29.456Z,71.54
2019-02-24T22:13:03.303Z,71.62
2019-02-24T22:15:40.156Z,71.63
2019-02-24T22:18:18.186Z,71.59
2019-02-24T22:20:54.858Z,71.60
2019-02-24T22:26:56.577Z,71.57
2019-02-24T22:35:20.652Z,71.58
2019-02-24T22:37:54.056Z,71.59
2019-02-24T22:50:21.897Z,71.66
2019-02-24T22:56:22.603Z,71.69
2019-02-24T23:05:16.504Z,71.72
2019-02-24T23:14:07.530Z,71.75
2019-02-24T23:16:44.524Z,71.77
2019-02-24T23:25:14.164Z,71.83
2019-02-24T23:43:47.756Z,71.92
2019-02-24T23:50:25.988Z,71.93
2019-02-24T23:56:04.945Z,71.94
